^^
Meteo Knjazevac Station Historical Data
Daily Summary for May 25, 2022 Units:  English    Metric   Both
Daily Weekly Monthly Yearly Custom
  High: Low: Average:
Temperature: 69.4 °F 51.8 °F 57.3 °F
Dew Point: 61.7 °F 49.1 °F 53.7 °F
Humidity: 94% 75% 88%
Wind Speed: 5mph 0mph 0.8mph
Wind Gust: 10mph - -
Wind- - South
Pressure: 30.09 in 30.00 in -
Precipitation: 0.00 in    
Historical Graphs
 
 
Tabular Data for May 25, 2022
Time Temperature Dew Point Pressure Wind Wind Speed Wind Gust Humidity Rainfall Rate (Hourly) solar Conditions
00:00 60.4 °F 55.3 °F 30.00 in Calm   3 mph 83% 0.00 in 0 W/m2
00:10 60.1 °F 54.9 °F 30.00 in Calm   1 mph 83% 0.00 in 0 W/m2
00:20 59.7 °F 54.5 °F 30.00 in Calm   2 mph 83% 0.00 in 0 W/m2
00:30 59.2 °F 54.1 °F 30.00 in Calm   2 mph 83% 0.00 in 0 W/m2
00:40 59 °F 54.2 °F 30.00 in Calm   1 mph 84% 0.00 in 0 W/m2
00:50 58.6 °F 53.8 °F 30.01 in Calm   2 mph 84% 0.00 in 0 W/m2
01:00 58.3 °F 53.5 °F 30.01 in Calm     84% 0.00 in 0 W/m2
01:10 57.9 °F 53.1 °F 30.01 in Calm   1 mph 84% 0.00 in 0 W/m2
01:20 57.4 °F 53 °F 30.01 in Calm   2 mph 85% 0.00 in 0 W/m2
01:30 57.1 °F 52.6 °F 30.01 in Calm   2 mph 85% 0.00 in 0 W/m2
01:40 56.8 °F 52.7 °F 30.01 in NW 1 mph 2 mph 86% 0.00 in 0 W/m2
01:50 56.7 °F 52.5 °F 30.01 in West 1 mph 2 mph 86% 0.00 in 0 W/m2
02:00 56.3 °F 52.8 °F 30.01 in WNW 1 mph 3 mph 88% 0.00 in 0 W/m2
02:10 56.1 °F 52.6 °F 30.01 in Calm   2 mph 88% 0.00 in 0 W/m2
02:20 55.8 °F 51.6 °F 30.01 in Calm   2 mph 86% 0.00 in 0 W/m2
02:30 55.6 °F 52.1 °F 30.02 in Calm   1 mph 88% 0.00 in 0 W/m2
02:40 55.4 °F 52.2 °F 30.02 in Calm   2 mph 89% 0.00 in 0 W/m2
02:50 55 °F 51.9 °F 30.02 in West 1 mph 3 mph 89% 0.00 in 0 W/m2
03:00 54.9 °F 52 °F 30.03 in WNW 1 mph 2 mph 90% 0.00 in 0 W/m2
03:20 54.7 °F 51.8 °F 30.03 in Calm   2 mph 90% 0.00 in 0 W/m2
03:30 54.5 °F 51.6 °F 30.03 in NNW 1 mph 2 mph 90% 0.00 in 0 W/m2
03:40 54.3 °F 51.7 °F 30.04 in Calm   2 mph 91% 0.00 in 0 W/m2
03:50 54.2 °F 51.6 °F 30.04 in Calm   2 mph 91% 0.00 in 0 W/m2
04:00 54 °F 51.4 °F 30.04 in Calm   2 mph 91% 0.00 in 0 W/m2
04:10 54 °F 51.4 °F 30.04 in Calm   2 mph 91% 0.00 in 0 W/m2
04:20 53.8 °F 51.2 °F 30.04 in Calm   2 mph 91% 0.00 in 0 W/m2
04:30 53.6 °F 51.6 °F 30.04 in Calm   2 mph 93% 0.00 in 0 W/m2
04:40 53.4 °F 50.9 °F 30.05 in Calm   2 mph 91% 0.00 in 0 W/m2
04:50 53.1 °F 50.2 °F 30.05 in Calm   1 mph 90% 0.00 in 0 W/m2
05:00 52.7 °F 49.8 °F 30.05 in Calm     90% 0.00 in 3 W/m2
05:10 52.4 °F 49.5 °F 30.05 in Calm     90% 0.00 in 8 W/m2
05:20 52.3 °F 49.5 °F 30.05 in Calm   1 mph 90% 0.00 in 13 W/m2
05:30 52.2 °F 49.6 °F 30.05 in Calm   2 mph 91% 0.00 in 21 W/m2
05:40 52 °F 49.1 °F 30.06 in NNW 1 mph 2 mph 90% 0.00 in 31 W/m2
05:50 51.8 °F 49.3 °F 30.06 in NW 1 mph 3 mph 91% 0.00 in 42 W/m2
06:00 52 °F 50 °F 30.06 in Calm   2 mph 93% 0.00 in 57 W/m2
06:10 52.3 °F 50.4 °F 30.06 in NW 1 mph 2 mph 93% 0.00 in 93 W/m2
06:20 52.3 °F 49.8 °F 30.06 in Calm   1 mph 91% 0.00 in 108 W/m2
06:30 52.5 °F 50 °F 30.06 in Calm   1 mph 91% 0.00 in 91 W/m2
06:40 52.9 °F 50.9 °F 30.07 in Calm   2 mph 93% 0.00 in 169 W/m2
06:50 53.4 °F 51.4 °F 30.06 in Calm   2 mph 93% 0.00 in 76 W/m2
07:00 54 °F 52.3 °F 30.07 in Calm   3 mph 94% 0.00 in 198 W/m2
07:10 54.7 °F 53 °F 30.06 in North 1 mph 3 mph 94% 0.00 in 216 W/m2
07:20 55.2 °F 53.5 °F 30.06 in SW 2 mph 3 mph 94% 0.00 in 161 W/m2
07:30 55.8 °F 54.1 °F 30.07 in Calm   3 mph 94% 0.00 in 346 W/m2
07:40 56.8 °F 55.1 °F 30.07 in NW 2 mph 5 mph 94% 0.00 in 237 W/m2
07:50 57.9 °F 55.9 °F 30.08 in NNE 2 mph 6 mph 93% 0.00 in 151 W/m2
08:00 58.6 °F 56 °F 30.08 in North 2 mph 7 mph 91% 0.00 in 423 W/m2
08:10 59.5 °F 56.6 °F 30.08 in North 1 mph 6 mph 90% 0.00 in 327 W/m2
08:20 60.3 °F 57 °F 30.09 in NW 1 mph 4 mph 89% 0.00 in 250 W/m2
08:30 61 °F 57.4 °F 30.07 in NE 2 mph 7 mph 88% 0.00 in 193 W/m2
08:40 61.3 °F 57.1 °F 30.07 in NNE 2 mph 7 mph 86% 0.00 in 220 W/m2
08:50 61.5 °F 57.3 °F 30.07 in North 5 mph 7 mph 86% 0.00 in 214 W/m2
09:00 62.4 °F 58.2 °F 30.07 in SW 2 mph 5 mph 86% 0.00 in 642 W/m2
09:10 63.8 °F 58.6 °F 30.07 in SW 2 mph 5 mph 83% 0.00 in 322 W/m2
09:20 64.9 °F 58.9 °F 30.08 in SSW 2 mph 6 mph 81% 0.00 in 665 W/m2
09:30 66 °F 59.6 °F 30.08 in SW 2 mph 6 mph 80% 0.00 in 631 W/m2
09:40 66.9 °F 60.2 °F 30.08 in ENE 2 mph 7 mph 79% 0.00 in 719 W/m2
09:50 68.2 °F 61.1 °F 30.08 in NE 3 mph 9 mph 78% 0.00 in 751 W/m2
10:00 69.2 °F 61.7 °F 30.07 in NNE 2 mph 10 mph 77% 0.00 in 467 W/m2
10:10 69.1 °F 60.8 °F 30.08 in NE 3 mph 8 mph 75% 0.00 in 303 W/m2
10:20 69.4 °F 61.1 °F 30.08 in NNE 3 mph 7 mph 75% 0.00 in 534 W/m2
Knjazevac, Serbia
Compliments of Weather Underground - 2 mb